createdAt,value
2023-01-19T00:00:59.608Z,12.20
2023-01-19T00:03:29.717Z,9.07
2023-01-19T00:05:56.676Z,6.90
2023-01-19T00:08:23.540Z,11.00
2023-01-19T00:10:51.039Z,11.90
2023-01-19T00:13:18.147Z,9.25
2023-01-19T00:15:45.291Z,12.23
2023-01-19T00:18:12.148Z,13.05
2023-01-19T00:20:39.997Z,11.63
2023-01-19T00:23:07.463Z,9.43
2023-01-19T00:25:34.787Z,8.27
2023-01-19T00:28:01.995Z,9.88
2023-01-19T00:30:29.401Z,7.50
2023-01-19T00:32:56.472Z,8.80
2023-01-19T00:35:23.383Z,12.02
2023-01-19T00:37:50.422Z,13.63
2023-01-19T00:40:17.958Z,9.88
2023-01-19T00:42:44.904Z,18.10
2023-01-19T00:45:14.783Z,14.77
2023-01-19T00:47:42.503Z,17.05
2023-01-19T00:50:11.592Z,15.10
2023-01-19T00:52:39.936Z,17.33
2023-01-19T00:55:12.278Z,17.77
2023-01-19T00:57:39.771Z,11.53
2023-01-19T01:00:09.882Z,11.50
2023-01-19T01:02:37.012Z,7.78
2023-01-19T01:05:05.070Z,8.82
2023-01-19T01:07:33.742Z,10.32
2023-01-19T01:10:01.045Z,8.90
2023-01-19T01:12:28.004Z,8.13
2023-01-19T01:14:54.859Z,8.73
2023-01-19T01:17:21.740Z,7.68
2023-01-19T01:19:48.682Z,6.95
2023-01-19T01:22:15.703Z,6.03
2023-01-19T01:24:42.665Z,7.60
2023-01-19T01:27:09.569Z,7.82
2023-01-19T01:29:36.458Z,7.38
2023-01-19T01:32:06.102Z,7.00
2023-01-19T01:34:33.037Z,8.37
2023-01-19T01:36:59.882Z,8.57
2023-01-19T01:39:29.459Z,10.15
2023-01-19T01:41:56.318Z,6.78
2023-01-19T01:44:50.621Z,9.63
2023-01-19T01:47:39.888Z,7.47
2023-01-19T01:50:09.479Z,6.38
2023-01-19T01:52:42.927Z,7.00
2023-01-19T01:55:32.614Z,6.07
2023-01-19T01:58:04.144Z,5.45
2023-01-19T02:00:31.675Z,7.20
2023-01-19T02:02:58.983Z,7.50
2023-01-19T02:05:33.467Z,5.57
2023-01-19T02:08:16.961Z,7.80
2023-01-19T02:10:44.599Z,6.72
2023-01-19T02:13:12.888Z,7.80
2023-01-19T02:15:39.770Z,8.18
2023-01-19T02:18:06.751Z,10.18
2023-01-19T02:20:36.866Z,10.45
2023-01-19T02:23:13.554Z,11.88
2023-01-19T02:25:40.498Z,13.07
2023-01-19T02:28:08.079Z,11.77
2023-01-19T02:30:38.177Z,9.27
2023-01-19T02:33:05.217Z,6.40
2023-01-19T02:35:32.999Z,7.55
2023-01-19T02:38:01.452Z,7.07
2023-01-19T02:40:28.793Z,5.10
2023-01-19T02:42:59.649Z,5.85
2023-01-19T02:45:27.524Z,6.65
2023-01-19T02:47:54.967Z,6.50
2023-01-19T02:51:00.034Z,7.80
2023-01-19T02:53:32.806Z,11.60
2023-01-19T02:56:23.681Z,10.38
2023-01-19T02:59:01.592Z,9.30
2023-01-19T03:01:56.421Z,5.90
2023-01-19T03:04:41.662Z,4.60
2023-01-19T03:07:11.731Z,7.35
2023-01-19T03:09:49.861Z,12.00
2023-01-19T03:12:25.837Z,19.92
2023-01-19T03:14:55.947Z,22.08
2023-01-19T03:17:23.096Z,19.73
2023-01-19T03:19:52.993Z,13.60
2023-01-19T03:22:25.291Z,18.67
2023-01-19T03:24:54.724Z,16.02
2023-01-19T03:27:29.429Z,18.80
2023-01-19T03:30:01.138Z,15.97
2023-01-19T03:32:57.069Z,12.75
2023-01-19T03:35:26.715Z,20.05
2023-01-19T03:37:56.675Z,24.42
2023-01-19T03:40:27.154Z,25.70
2023-01-19T03:42:54.934Z,21.17
2023-01-19T03:45:23.111Z,20.85
2023-01-19T03:47:50.396Z,22.65
2023-01-19T03:50:35.613Z,22.80
2023-01-19T03:53:07.207Z,21.42
2023-01-19T03:55:36.201Z,17.80
2023-01-19T03:58:03.014Z,22.95
2023-01-19T04:00:29.908Z,19.58
2023-01-19T04:02:56.967Z,17.73
2023-01-19T04:05:24.401Z,20.52
2023-01-19T04:07:53.698Z,17.93
2023-01-19T04:10:21.290Z,22.17
2023-01-19T04:12:49.021Z,15.30
2023-01-19T04:15:16.587Z,14.45
2023-01-19T04:17:43.551Z,14.10
2023-01-19T04:20:10.952Z,14.17
2023-01-19T04:22:37.796Z,13.73
2023-01-19T04:25:05.341Z,14.05
2023-01-19T04:27:32.360Z,13.95
2023-01-19T04:29:59.272Z,14.32
2023-01-19T04:32:26.429Z,11.37
2023-01-19T04:34:53.382Z,10.73
2023-01-19T04:37:20.248Z,11.77
2023-01-19T04:39:47.148Z,15.30
2023-01-19T04:42:14.086Z,11.82
2023-01-19T04:44:40.908Z,12.50
2023-01-19T04:47:07.881Z,12.60
2023-01-19T04:49:34.827Z,12.30
2023-01-19T04:52:01.701Z,11.20
2023-01-19T04:54:28.687Z,13.25
2023-01-19T04:56:55.574Z,14.83
2023-01-19T04:59:22.511Z,11.52
2023-01-19T05:01:49.467Z,12.93
2023-01-19T05:04:16.619Z,11.35
2023-01-19T05:06:43.545Z,10.75
2023-01-19T05:09:11.910Z,14.43
2023-01-19T05:11:39.010Z,10.13
2023-01-19T05:14:06.065Z,10.40
2023-01-19T05:16:33.934Z,14.90
2023-01-19T05:19:01.029Z,12.10
2023-01-19T05:21:28.011Z,11.60
2023-01-19T05:23:54.867Z,12.35
2023-01-19T05:26:21.898Z,12.85
2023-01-19T05:28:48.842Z,10.60
2023-01-19T05:31:18.676Z,13.18
2023-01-19T05:33:46.455Z,11.80
2023-01-19T05:36:13.288Z,14.60
2023-01-19T05:38:40.185Z,12.13
2023-01-19T05:41:07.088Z,15.00
2023-01-19T05:43:33.989Z,12.48
2023-01-19T05:46:01.056Z,11.67
2023-01-19T05:48:28.036Z,14.55
2023-01-19T05:50:58.620Z,16.23
2023-01-19T05:53:25.582Z,22.67
2023-01-19T05:55:52.591Z,20.00
2023-01-19T05:58:19.542Z,16.83
2023-01-19T06:00:46.387Z,19.90
2023-01-19T06:03:13.307Z,17.52
2023-01-19T06:05:40.283Z,17.48
2023-01-19T06:08:07.215Z,26.67
2023-01-19T06:10:34.074Z,27.07
2023-01-19T06:13:01.194Z,26.80
2023-01-19T06:15:28.432Z,24.20
2023-01-19T06:17:55.308Z,20.92
2023-01-19T06:20:22.270Z,21.52
2023-01-19T06:22:49.350Z,20.23
2023-01-19T06:25:16.238Z,20.85
2023-01-19T06:27:45.871Z,20.60
2023-01-19T06:30:13.748Z,27.27
2023-01-19T06:32:40.624Z,31.05
2023-01-19T06:35:07.736Z,29.30
2023-01-19T06:37:34.921Z,26.63
2023-01-19T06:40:01.929Z,25.75
2023-01-19T06:42:28.886Z,22.92
2023-01-19T06:44:55.903Z,26.95
2023-01-19T06:47:22.877Z,26.10
2023-01-19T06:49:49.805Z,38.45
2023-01-19T06:52:17.106Z,48.83
2023-01-19T06:54:47.360Z,34.22
2023-01-19T06:57:14.942Z,36.78
2023-01-19T06:59:41.997Z,37.13
2023-01-19T07:02:26.441Z,37.28
2023-01-19T07:04:56.335Z,32.60
2023-01-19T07:07:23.323Z,26.30
2023-01-19T07:09:50.192Z,29.58
2023-01-19T07:12:21.075Z,33.10
2023-01-19T07:14:50.237Z,29.23
2023-01-19T07:17:17.490Z,36.30
2023-01-19T07:19:44.620Z,32.78
2023-01-19T07:22:11.554Z,32.47
2023-01-19T07:24:38.432Z,29.97
2023-01-19T07:27:05.351Z,32.95
2023-01-19T07:29:32.308Z,36.40
2023-01-19T07:31:59.222Z,34.17
2023-01-19T07:34:26.044Z,28.23
2023-01-19T07:36:52.943Z,31.17
2023-01-19T07:39:19.771Z,33.80
2023-01-19T07:41:48.548Z,33.90
2023-01-19T07:44:15.717Z,29.63
2023-01-19T07:46:42.620Z,32.05
2023-01-19T07:49:09.647Z,30.93
2023-01-19T07:51:36.691Z,32.35
2023-01-19T07:54:03.616Z,37.33
2023-01-19T07:56:32.614Z,36.00
2023-01-19T07:58:59.772Z,33.00
2023-01-19T08:01:26.665Z,37.27
2023-01-19T08:03:53.642Z,33.08
2023-01-19T08:06:23.596Z,35.95
2023-01-19T08:08:50.953Z,35.20
2023-01-19T08:11:17.931Z,33.25
2023-01-19T08:13:44.797Z,37.90
2023-01-19T08:16:11.804Z,42.55
2023-01-19T08:18:38.696Z,33.78
2023-01-19T08:21:06.250Z,38.42
2023-01-19T08:23:33.177Z,37.05
2023-01-19T08:26:00.143Z,38.20
2023-01-19T08:28:27.149Z,40.13
2023-01-19T08:30:54.291Z,38.88
2023-01-19T08:33:22.992Z,36.63
2023-01-19T08:35:52.927Z,48.25
2023-01-19T08:38:19.975Z,38.00
2023-01-19T08:40:47.128Z,43.28
2023-01-19T08:43:16.291Z,40.50
2023-01-19T08:45:46.675Z,35.70
2023-01-19T08:48:13.906Z,29.85
2023-01-19T08:50:41.044Z,34.13
2023-01-19T08:53:08.407Z,38.35
2023-01-19T08:55:37.066Z,32.40
2023-01-19T08:58:05.063Z,29.15
2023-01-19T09:00:34.083Z,34.28
2023-01-19T09:03:02.319Z,28.80
2023-01-19T09:05:30.556Z,33.00
2023-01-19T09:07:57.471Z,27.27
2023-01-19T09:10:25.033Z,24.65
2023-01-19T09:12:51.910Z,24.20
2023-01-19T09:15:20.208Z,27.30
2023-01-19T09:17:47.064Z,27.08
2023-01-19T09:20:14.090Z,27.15
2023-01-19T09:22:40.957Z,23.80
2023-01-19T09:25:08.411Z,25.05
2023-01-19T09:27:35.578Z,24.53
2023-01-19T09:30:03.860Z,24.98
2023-01-19T09:32:30.786Z,24.38
2023-01-19T09:34:57.759Z,23.65
2023-01-19T09:37:24.658Z,23.45
2023-01-19T09:39:51.635Z,24.73
2023-01-19T09:42:31.369Z,28.98
2023-01-19T09:44:58.960Z,28.15
2023-01-19T09:47:29.896Z,25.40
2023-01-19T09:50:05.357Z,23.13
2023-01-19T09:52:36.443Z,26.47
2023-01-19T09:55:03.558Z,27.63
2023-01-19T09:57:31.310Z,30.60
2023-01-19T09:59:58.404Z,25.42
2023-01-19T10:02:39.534Z,27.58
2023-01-19T10:05:32.552Z,31.53
2023-01-19T10:08:14.543Z,24.05
2023-01-19T10:10:47.308Z,27.45
2023-01-19T10:13:35.819Z,25.92
2023-01-19T10:16:14.780Z,30.92
2023-01-19T10:18:46.871Z,27.77
2023-01-19T10:21:19.355Z,28.02
2023-01-19T10:24:13.497Z,29.63
2023-01-19T10:26:45.828Z,29.90
2023-01-19T10:29:39.099Z,31.08
2023-01-19T10:32:12.220Z,25.03
2023-01-19T10:34:39.403Z,30.23
2023-01-19T10:37:22.944Z,29.30
2023-01-19T10:39:55.602Z,25.20
2023-01-19T10:42:22.884Z,25.23
2023-01-19T10:44:50.031Z,23.97
2023-01-19T10:47:19.452Z,26.52
2023-01-19T10:49:48.315Z,19.85
2023-01-19T10:52:36.230Z,16.98
2023-01-19T10:55:06.119Z,13.45
2023-01-19T10:57:40.933Z,25.07
2023-01-19T11:00:38.307Z,16.63
2023-01-19T11:03:24.876Z,15.15
2023-01-19T11:05:52.076Z,16.50
2023-01-19T11:08:30.058Z,19.15
2023-01-19T11:11:03.401Z,18.40
2023-01-19T11:13:30.811Z,16.00
2023-01-19T11:16:14.403Z,17.00
2023-01-19T11:18:42.818Z,15.38
2023-01-19T11:21:13.461Z,14.65
2023-01-19T11:23:52.790Z,13.87
2023-01-19T11:26:40.054Z,12.10
2023-01-19T11:29:23.339Z,11.90
2023-01-19T11:31:51.745Z,14.55
2023-01-19T11:34:26.616Z,16.58
2023-01-19T11:37:23.850Z,16.53
2023-01-19T11:39:53.274Z,12.07
2023-01-19T11:42:20.833Z,14.48
2023-01-19T11:45:13.641Z,11.80
2023-01-19T11:47:44.459Z,14.02
2023-01-19T11:50:14.025Z,13.13
2023-01-19T11:52:50.998Z,15.38
2023-01-19T11:55:42.522Z,10.60
2023-01-19T11:58:15.961Z,11.30
2023-01-19T12:01:17.800Z,11.60
2023-01-19T12:03:49.224Z,17.63
2023-01-19T12:06:20.678Z,13.45
2023-01-19T12:08:53.785Z,12.25
2023-01-19T12:11:30.130Z,12.40
2023-01-19T12:13:57.480Z,10.13
2023-01-19T12:16:29.066Z,14.80
2023-01-19T12:19:00.613Z,9.88
2023-01-19T12:21:27.649Z,10.30
2023-01-19T12:24:15.952Z,10.02
2023-01-19T12:26:51.470Z,8.65
2023-01-19T12:29:21.543Z,10.03
2023-01-19T12:32:27.038Z,9.57
2023-01-19T12:34:53.939Z,11.70
2023-01-19T12:37:43.098Z,13.20
2023-01-19T12:40:27.045Z,11.27
2023-01-19T12:43:06.028Z,11.97
2023-01-19T12:45:37.567Z,15.40
2023-01-19T12:48:05.593Z,14.10
2023-01-19T12:50:39.106Z,15.48
2023-01-19T12:53:18.171Z,13.35
2023-01-19T12:55:45.734Z,14.37
2023-01-19T12:58:24.820Z,13.00
2023-01-19T13:01:19.211Z,13.05
2023-01-19T13:04:02.085Z,18.63
2023-01-19T13:06:47.397Z,18.58
2023-01-19T13:09:32.000Z,14.83
2023-01-19T13:12:15.757Z,16.63
2023-01-19T13:14:43.617Z,15.50
2023-01-19T13:17:33.449Z,17.13
2023-01-19T13:20:05.151Z,17.58
2023-01-19T13:22:47.074Z,19.60
2023-01-19T13:25:27.903Z,16.73
2023-01-19T13:27:55.277Z,17.30
2023-01-19T13:30:26.286Z,16.50
2023-01-19T13:32:56.997Z,15.93
2023-01-19T13:35:24.843Z,15.13
2023-01-19T13:37:52.491Z,14.23
2023-01-19T13:40:26.437Z,19.23
2023-01-19T13:42:54.675Z,15.32
2023-01-19T13:45:34.260Z,15.80
2023-01-19T13:48:05.536Z,15.30
2023-01-19T13:50:36.979Z,16.23
2023-01-19T13:53:04.020Z,23.83
2023-01-19T13:55:32.207Z,19.75
2023-01-19T13:57:59.189Z,13.43
2023-01-19T14:00:29.284Z,15.13
2023-01-19T14:03:17.061Z,18.38
2023-01-19T14:05:45.041Z,18.48
2023-01-19T14:08:15.705Z,18.30
2023-01-19T14:10:54.889Z,17.67
2023-01-19T14:13:24.215Z,14.00
2023-01-19T14:15:56.140Z,16.00
2023-01-19T14:18:26.995Z,13.48
2023-01-19T14:21:04.591Z,16.80
2023-01-19T14:23:54.566Z,63.92
2023-01-19T14:27:08.391Z,38.53
2023-01-19T14:29:36.778Z,16.08
2023-01-19T14:32:03.649Z,13.15
2023-01-19T14:34:55.447Z,12.75
2023-01-19T14:37:28.652Z,12.77
2023-01-19T14:40:01.147Z,17.43
2023-01-19T14:42:32.579Z,31.83
2023-01-19T14:45:02.300Z,30.15
2023-01-19T14:47:38.713Z,38.85
2023-01-19T14:50:23.384Z,43.10
2023-01-19T14:52:57.851Z,41.27
2023-01-19T14:55:33.995Z,35.85
2023-01-19T14:58:01.164Z,33.60
2023-01-19T15:00:28.734Z,29.45
2023-01-19T15:02:55.654Z,35.15
2023-01-19T15:05:23.537Z,34.63
2023-01-19T15:07:50.471Z,39.92
2023-01-19T15:10:22.122Z,44.80
2023-01-19T15:12:51.342Z,29.05
2023-01-19T15:15:41.026Z,36.97
2023-01-19T15:18:15.476Z,55.70
2023-01-19T15:20:42.376Z,42.33
2023-01-19T15:23:12.583Z,23.90
2023-01-19T15:25:40.041Z,21.92
2023-01-19T15:28:13.258Z,36.05
2023-01-19T15:30:40.353Z,25.43
2023-01-19T15:33:12.682Z,25.35
2023-01-19T15:35:39.552Z,25.30
2023-01-19T15:38:06.440Z,20.13
2023-01-19T15:40:33.355Z,22.02
2023-01-19T15:43:00.220Z,17.80
2023-01-19T15:45:38.178Z,18.75
2023-01-19T15:48:07.982Z,17.20
2023-01-19T15:50:47.497Z,15.38
2023-01-19T15:53:19.411Z,20.63
2023-01-19T15:55:53.065Z,23.67
2023-01-19T15:58:20.032Z,16.67
2023-01-19T16:00:54.714Z,18.73
2023-01-19T16:03:21.966Z,19.52
2023-01-19T16:05:49.065Z,19.02
2023-01-19T16:08:16.100Z,19.10
2023-01-19T16:10:43.422Z,20.77
2023-01-19T16:13:11.794Z,17.55
2023-01-19T16:15:40.238Z,14.27
2023-01-19T16:18:07.226Z,13.57
2023-01-19T16:20:34.486Z,12.37
2023-01-19T16:23:16.518Z,17.60
2023-01-19T16:25:43.639Z,18.17
2023-01-19T16:28:10.562Z,17.35
2023-01-19T16:30:37.523Z,19.23
2023-01-19T16:33:04.484Z,17.20
2023-01-19T16:35:31.517Z,18.42
2023-01-19T16:37:58.347Z,12.50
2023-01-19T16:40:26.477Z,15.93
2023-01-19T16:42:53.306Z,23.42
2023-01-19T16:45:20.249Z,20.67
2023-01-19T16:47:47.176Z,18.65
2023-01-19T16:50:13.987Z,17.38
2023-01-19T16:52:40.969Z,18.63
2023-01-19T16:55:14.592Z,16.38
2023-01-19T16:57:41.770Z,15.07
2023-01-19T17:00:09.918Z,17.02
2023-01-19T17:02:37.157Z,18.45
2023-01-19T17:05:04.691Z,15.70
2023-01-19T17:07:34.204Z,14.77
2023-01-19T17:10:01.187Z,14.10
2023-01-19T17:13:01.275Z,15.23
2023-01-19T17:15:28.421Z,13.05
2023-01-19T17:17:55.239Z,15.77
2023-01-19T17:20:22.142Z,17.48
2023-01-19T17:22:52.152Z,15.20
2023-01-19T17:25:19.195Z,14.10
2023-01-19T17:27:49.173Z,21.52
2023-01-19T17:30:16.571Z,14.75
2023-01-19T17:32:43.615Z,15.30
2023-01-19T17:35:10.709Z,15.38
2023-01-19T17:37:37.617Z,15.63
2023-01-19T17:40:04.845Z,16.83
2023-01-19T17:42:31.816Z,19.15
2023-01-19T17:45:01.625Z,16.52
2023-01-19T17:47:28.574Z,21.77
2023-01-19T17:49:55.721Z,19.63
2023-01-19T17:52:22.802Z,19.50
2023-01-19T17:54:49.701Z,18.75
2023-01-19T17:57:18.895Z,19.60
2023-01-19T17:59:46.860Z,17.60
2023-01-19T18:02:14.213Z,19.77
2023-01-19T18:04:44.056Z,17.98
2023-01-19T18:07:10.911Z,16.13
2023-01-19T18:09:37.797Z,16.05
2023-01-19T18:12:04.927Z,14.65
2023-01-19T18:14:31.851Z,16.50
2023-01-19T18:16:58.809Z,19.60
2023-01-19T18:19:25.755Z,20.58
2023-01-19T18:21:52.668Z,14.60
2023-01-19T18:24:19.770Z,14.10
2023-01-19T18:26:46.637Z,13.27
2023-01-19T18:29:16.253Z,16.55
2023-01-19T18:31:43.528Z,19.52
2023-01-19T18:34:10.570Z,14.68
2023-01-19T18:36:37.495Z,18.05
2023-01-19T18:39:04.655Z,13.63
2023-01-19T18:41:31.528Z,13.43
2023-01-19T18:44:01.541Z,13.10
2023-01-19T18:46:28.635Z,12.40
2023-01-19T18:48:55.645Z,12.13
2023-01-19T18:51:22.689Z,10.57
2023-01-19T18:53:49.726Z,15.45
2023-01-19T18:56:16.858Z,14.05
2023-01-19T18:58:46.981Z,13.73
2023-01-19T19:01:23.926Z,12.00
2023-01-19T19:03:52.038Z,20.10
2023-01-19T19:06:19.280Z,24.15
2023-01-19T19:08:46.950Z,22.65
2023-01-19T19:11:14.284Z,19.98
2023-01-19T19:13:41.670Z,21.50
2023-01-19T19:16:11.440Z,25.67
2023-01-19T19:18:39.431Z,25.70
2023-01-19T19:21:11.570Z,22.77
2023-01-19T19:23:39.058Z,23.27
2023-01-19T19:26:10.820Z,27.15
2023-01-19T19:28:39.668Z,23.80
2023-01-19T19:31:09.825Z,21.85
2023-01-19T19:33:40.774Z,21.98
2023-01-19T19:36:09.209Z,17.92
2023-01-19T19:38:36.727Z,28.00
2023-01-19T19:41:08.500Z,29.83
2023-01-19T19:43:39.219Z,35.42
2023-01-19T19:46:09.280Z,38.28
2023-01-19T19:48:39.232Z,29.42
2023-01-19T19:51:17.426Z,31.13
2023-01-19T19:53:46.042Z,25.83
2023-01-19T19:56:15.463Z,24.27
2023-01-19T19:58:43.412Z,23.70
2023-01-19T20:01:16.986Z,24.95
2023-01-19T20:03:44.448Z,24.33
2023-01-19T20:06:17.652Z,19.53
2023-01-19T20:08:44.811Z,15.55
2023-01-19T20:11:14.545Z,19.90
2023-01-19T20:13:43.393Z,16.90
2023-01-19T20:16:12.861Z,17.50
2023-01-19T20:18:44.626Z,25.87
2023-01-19T20:21:17.664Z,26.17
2023-01-19T20:23:45.832Z,23.33
2023-01-19T20:26:14.934Z,17.42
2023-01-19T20:28:42.296Z,17.02
2023-01-19T20:31:14.113Z,14.57
2023-01-19T20:33:41.605Z,17.63
2023-01-19T20:36:09.896Z,20.55
2023-01-19T20:38:38.157Z,24.63
2023-01-19T20:41:05.529Z,21.45
2023-01-19T20:43:32.758Z,23.77
2023-01-19T20:45:59.730Z,21.50
2023-01-19T20:48:27.147Z,18.35
2023-01-19T20:51:02.193Z,19.05
2023-01-19T20:53:29.975Z,18.27
2023-01-19T20:55:56.976Z,18.07
2023-01-19T20:58:24.274Z,21.30
2023-01-19T21:00:51.379Z,24.48
2023-01-19T21:03:18.225Z,27.15
2023-01-19T21:05:47.451Z,20.90
2023-01-19T21:08:15.114Z,19.87
2023-01-19T21:10:43.124Z,15.95
2023-01-19T21:13:09.921Z,15.10
2023-01-19T21:15:36.983Z,15.82
2023-01-19T21:18:04.064Z,17.33
2023-01-19T21:20:31.171Z,15.67
2023-01-19T21:22:58.120Z,17.38
2023-01-19T21:25:25.273Z,22.60
2023-01-19T21:27:52.309Z,23.48
2023-01-19T21:30:19.405Z,20.23
2023-01-19T21:32:46.288Z,33.20
2023-01-19T21:35:13.417Z,27.35
2023-01-19T21:37:40.506Z,29.45
2023-01-19T21:40:08.029Z,24.83
2023-01-19T21:42:35.368Z,28.75
2023-01-19T21:45:02.279Z,29.77
2023-01-19T21:47:29.274Z,22.38
2023-01-19T21:49:56.342Z,24.65
2023-01-19T21:52:23.183Z,24.67
2023-01-19T21:54:50.255Z,21.83
2023-01-19T21:57:17.136Z,16.67
2023-01-19T21:59:44.191Z,19.70
2023-01-19T22:02:12.564Z,15.00
2023-01-19T22:04:39.751Z,18.05
2023-01-19T22:07:06.948Z,14.45
2023-01-19T22:09:34.908Z,15.13
2023-01-19T22:12:02.284Z,17.92
2023-01-19T22:14:29.477Z,13.98
2023-01-19T22:16:56.643Z,19.10
2023-01-19T22:19:23.758Z,27.02
2023-01-19T22:21:50.687Z,20.97
2023-01-19T22:24:17.683Z,29.17
2023-01-19T22:26:44.749Z,31.92
2023-01-19T22:29:12.087Z,36.05
2023-01-19T22:31:40.228Z,33.53
2023-01-19T22:34:07.269Z,36.70
2023-01-19T22:36:34.173Z,39.72
2023-01-19T22:39:06.121Z,29.98
2023-01-19T22:41:35.765Z,33.55
2023-01-19T22:44:06.087Z,33.58
2023-01-19T22:46:35.842Z,29.60
2023-01-19T22:49:03.329Z,29.85
2023-01-19T22:51:31.711Z,33.13
2023-01-19T22:53:58.889Z,33.15
2023-01-19T22:56:27.693Z,41.83
2023-01-19T22:58:56.620Z,34.80
2023-01-19T23:01:26.383Z,33.97
2023-01-19T23:03:54.617Z,31.92
2023-01-19T23:06:27.177Z,28.75
2023-01-19T23:08:59.656Z,26.42
2023-01-19T23:11:35.706Z,25.27
2023-01-19T23:14:04.027Z,29.77
2023-01-19T23:16:31.175Z,31.95
2023-01-19T23:18:58.794Z,32.75
2023-01-19T23:21:28.015Z,29.00
2023-01-19T23:23:56.904Z,25.73
2023-01-19T23:26:24.927Z,18.08
2023-01-19T23:28:56.375Z,19.65
2023-01-19T23:31:26.074Z,17.52
2023-01-19T23:33:55.795Z,15.43
2023-01-19T23:36:26.694Z,17.67
2023-01-19T23:39:07.779Z,18.90
2023-01-19T23:41:34.746Z,24.38
2023-01-19T23:44:02.353Z,22.92
2023-01-19T23:46:29.771Z,31.80
2023-01-19T23:48:57.524Z,31.30
2023-01-19T23:51:29.763Z,26.48
2023-01-19T23:53:58.188Z,30.50
2023-01-19T23:56:27.986Z,33.53
2023-01-19T23:58:59.933Z,30.42
